OICI  Ilam Airport

Add Bookmark

Ilam, Iran

Status IATA
Operational IIL
Latitude Longitude
33° 35' 11" N 46° 24' 17" E
33.586601 46.404800
Local (DST + 5) UTC (GMT + 4)
Nov 1, 2014 05:54 Nov 1, 2014 02:24
Sunrise-Sunset Local UTC
Begin Civil Twilight 06:16 02:46
Sunrise 06:42 03:12
Sunset 05:33 14:03
End Civil Twilight 05:59 14:29

Current Weather

METAR Observed MVFR
OICI 010200Z 00000KT 8000 RA FEW030CB SCT035 OVC080 11/08 Q1013 A2994 Sat, Nov 1, 2014 @ 02:00 UTC
(24 Minutes ago)
Marginal Visual Flight Rules
Wind Visibility Clouds Conditions
Calm 8000 meters
  • Few at 3,000' AGL
  • Scattered at 3,500' AGL
  • Overcast at 8,000' AGL
  • Rain
Temperatures Readings Precipitation
Current Temp 11°C (52°F)
Dewpoint 8°C (46°F)
Humidity 82%
Altimeter 29.91"Hg
Sea Level Pressure 1013mb
Field Elevation 4406.17'
None Recorded

Additional weather within a 185.2km radius of OICI

Map ICAO Location
OIGK 101.5km N (040°)
OICC 109.3km N (039°)
OICK 174.8km E (095°)

24 Hour Weather History

Loading
-

24 Hour Weather Graphs

Loading
-

CheckWX.com is intended as a tool to help pilots better visualize weather data. It is not intended as a substitute for an official weather briefing obtained from a Flight Service Station. CheckWX.com does not meet the FAA requirements for an official pre-flight weather briefing. Therefore, it's important that pilots still call and obtain an official FSS pre-flight weather briefing.